JFX weather

Walker County Airport-Bevill Field
Jasper, Alabama, United States

Public forecast

Using degrees Fahrenheit for public forecast. Weather courtesy of forecast.io.

Current aviation weather report (METAR) for Walker County Airport-Bevill Field

Retrieved 2019/10/15 17:35 UTC (12 minutes ago):

KJFX 151735Z AUTO 8SM -RA FEW019 SCT026 SCT032 21/19 A3004 RMK AO2

Closest aviation forecast (TAF) to Walker County Airport-Bevill Field

Closest forecast is Birmingham-Shuttlesworth International Airport, 34.6 nm (64.1 km) SE. Retrieved 2019/10/15 12:24 UTC (5 hours ago):

TAF KBHM 151122Z 1512/1612 00000KT 6SM -RA BR OVC025 FM151300 VRB02KT 4SM -RA BR OVC015 FM151700 VRB04KT 4SM -RA BR OVC007 FM160300 VRB02KT 4SM BR OVC004 FM160900 23003KT 2SM -RA BR OVC004